Yu_ka — JD2254 — position and weather

sailwx.info

Track history (hours):
 
Tides and Currents Weather Stations Pressure Air Temp Water Temp Dewpoint Dewpoint Depression Visibility Wind Speed Wind Dir Waves Ship Positions

Yu_ka

Last reported at 2017-Oct-17 09:31 UTC. Time now 2017-Oct-17 20:26 UTC.
Position N 34°52' E 139°49'.

Length 76 m; draft 3.9 m.

Type: Cargo ship. MMSI: 431402044.

Date/timePositionNaut miles runAvg speedWind from/ knotsBaromVisibWave heightAir tempDewpointWater temp
2017-Oct-17 09:31N 34°52' E 139°49'112.5
2017-Oct-17 09:24N 34°53' E 139°47'614.6
2017-Oct-17 09:00N 34°57' E 139°43'613.0
2017-Oct-17 08:30N 35°04' E 139°44'612.9
2017-Oct-17 08:00N 35°10' E 139°46'612.7
2017-Oct-17 07:30N 35°17' E 139°45'613.0
2017-Oct-17 07:00N 35°22' E 139°42'4 7.8
2017-Oct-17 06:31N 35°26' E 139°41'0 0.2
2017-Oct-17 06:00N 35°26' E 139°41'0 0.0
2017-Oct-17 05:30N 35°26' E 139°41'0 0.0
2017-Oct-17 05:00N 35°26' E 139°41'1 1.8
2017-Oct-17 04:30N 35°27' E 139°42'1 1.7
2017-Oct-17 04:00N 35°27' E 139°43'0 0.0
2017-Oct-17 03:30N 35°27' E 139°43'0 0.0
2017-Oct-17 03:00N 35°27' E 139°43'0 0.1
2017-Oct-17 02:30N 35°27' E 139°43'0 0.0
2017-Oct-17 02:00N 35°27' E 139°43'0 0.1
2017-Oct-17 01:30N 35°27' E 139°43'0 0.1
2017-Oct-17 01:00N 35°27' E 139°43'0 0.0
2017-Oct-17 00:30N 35°27' E 139°43'0 0.0
2017-Oct-17 00:00N 35°27' E 139°43'0 0.0
2017-Oct-16 23:30N 35°27' E 139°43'0 0.0
2017-Oct-16 23:00N 35°27' E 139°43'0 0.0
2017-Oct-16 22:30N 35°27' E 139°43'0 0.0
2017-Oct-16 22:00N 35°27' E 139°43'0 0.0
2017-Oct-16 21:30N 35°27' E 139°43'0 0.0
2017-Oct-16 21:00N 35°27' E 139°43'0 0.0
2017-Oct-16 20:30N 35°27' E 139°43'0 0.0
2017-Oct-16 20:00N 35°27' E 139°43'0 0.0
2017-Oct-16 19:30N 35°27' E 139°43'0 0.0
2017-Oct-16 19:00N 35°27' E 139°43'0 0.0
2017-Oct-16 18:30N 35°27' E 139°43'0 0.0
2017-Oct-16 18:00N 35°27' E 139°43'0 0.0
2017-Oct-16 17:30N 35°27' E 139°43'0 0.0
2017-Oct-16 17:00N 35°27' E 139°43'0 0.0
2017-Oct-16 16:30N 35°27' E 139°43'0 0.0
2017-Oct-16 16:00N 35°27' E 139°43'0 0.0
2017-Oct-16 15:30N 35°27' E 139°43'0 0.0
2017-Oct-16 15:00N 35°27' E 139°43'0 0.0
2017-Oct-16 14:00N 35°27' E 139°43'0 0.0
2017-Oct-16 13:30N 35°27' E 139°43'0 0.0
2017-Oct-16 13:00N 35°27' E 139°43'0 0.1
2017-Oct-16 12:30N 35°27' E 139°43'0 0.0
2017-Oct-16 12:00N 35°27' E 139°43'0 0.0
2017-Oct-16 11:30N 35°27' E 139°43'0 0.0
2017-Oct-16 11:00N 35°27' E 139°43'0 0.0
2017-Oct-16 10:30N 35°27' E 139°43'0 0.0
2017-Oct-16 10:00N 35°27' E 139°43'0 0.0
2017-Oct-16 09:30N 35°27' E 139°43'0 0.0
2017-Oct-16 09:00N 35°27' E 139°43'0 0.2
2017-Oct-16 08:31N 35°27' E 139°43'1 2.5
2017-Oct-16 08:00N 35°28' E 139°42'0 0.0
2017-Oct-16 07:30N 35°28' E 139°42'0 0.0
2017-Oct-16 07:00N 35°28' E 139°42'0 0.0
2017-Oct-16 06:29N 35°28' E 139°42'0 0.0
2017-Oct-16 05:59N 35°28' E 139°42'0 0.0
2017-Oct-16 05:29N 35°28' E 139°42'0 0.0
2017-Oct-16 04:59N 35°28' E 139°42'0 0.0
2017-Oct-16 04:29N 35°28' E 139°42'2 4.8
2017-Oct-16 04:00N 35°26' E 139°44'2 4.5
2017-Oct-16 03:27N 35°24' E 139°45'0 0.0
2017-Oct-16 03:00N 35°24' E 139°45'0 0.0
2017-Oct-16 02:30N 35°24' E 139°45'0 0.0
2017-Oct-16 02:00N 35°24' E 139°45'0 0.0
2017-Oct-16 01:30N 35°24' E 139°45'0 0.0
2017-Oct-16 01:00N 35°24' E 139°45'0 0.0
2017-Oct-16 00:30N 35°24' E 139°45'0 0.0
2017-Oct-16 00:00N 35°24' E 139°45'0 0.1
2017-Oct-15 23:30N 35°24' E 139°45'0 0.1
2017-Oct-15 23:00N 35°24' E 139°45'0 0.0
2017-Oct-15 22:27N 35°24' E 139°45'0 0.0
2017-Oct-15 22:00N 35°24' E 139°45'0 0.0
2017-Oct-15 21:30N 35°24' E 139°45'0 0.0
2017-Oct-15 21:00N 35°24' E 139°45'0 0.1
2017-Oct-15 20:30N 35°24' E 139°45'0 0.1
2017-Oct-15 20:00N 35°24' E 139°45'0 0.1
2017-Oct-15 19:30N 35°24' E 139°45'0 0.1
2017-Oct-15 19:00N 35°24' E 139°45'0 0.0
2017-Oct-15 18:30N 35°24' E 139°45'0 0.0
2017-Oct-15 18:00N 35°24' E 139°45'0 0.1
2017-Oct-15 17:30N 35°24' E 139°45'0 0.0
2017-Oct-15 17:00N 35°24' E 139°45'0 0.0
2017-Oct-15 16:30N 35°24' E 139°45'0 0.1
2017-Oct-15 15:57N 35°24' E 139°45'0 0.0
2017-Oct-15 15:30N 35°24' E 139°45'0 0.0
2017-Oct-15 15:00N 35°24' E 139°45'0 0.0
2017-Oct-15 14:00N 35°24' E 139°45'0 0.0
2017-Oct-15 13:30N 35°24' E 139°45'0 0.0
2017-Oct-15 13:00N 35°24' E 139°45'0 0.0
2017-Oct-15 12:30N 35°24' E 139°45'0 0.0
2017-Oct-15 12:00N 35°24' E 139°45'0 0.1
2017-Oct-15 11:30N 35°24' E 139°45'0 0.0
2017-Oct-15 11:00N 35°24' E 139°45'0 0.0
2017-Oct-15 10:30N 35°24' E 139°45'0 0.0
2017-Oct-15 10:00N 35°24' E 139°45'0 0.0
2017-Oct-15 09:30N 35°24' E 139°45'0 0.0
2017-Oct-15 09:00N 35°24' E 139°45'2 5.1
2017-Oct-15 08:31N 35°22' E 139°43'611.6
2017-Oct-15 08:00N 35°17' E 139°46'611.4
2017-Oct-15 07:30N 35°11' E 139°47'612.4
2017-Oct-15 07:00N 35°05' E 139°45'612.0
2017-Oct-15 06:31N 34°59' E 139°43'  
2017-Oct-10 23:45N 35°24' E 139°41'0 0.0
2017-Oct-10 23:26N 35°24' E 139°41'1 2.7
2017-Oct-10 23:00N 35°23' E 139°40'0 0.1
2017-Oct-10 22:25N 35°23' E 139°40'0 0.0
2017-Oct-10 20:37N 35°23' E 139°40'0 0.2
2017-Oct-10 20:19N 35°23' E 139°40'0 0.0
2017-Oct-10 19:55N 35°23' E 139°40'0 0.0
2017-Oct-10 19:25N 35°23' E 139°40'0 0.0
2017-Oct-10 17:55N 35°23' E 139°40'0 0.1
2017-Oct-10 17:25N 35°23' E 139°40'0 0.0
2017-Oct-10 15:37N 35°23' E 139°40'0 0.0
2017-Oct-10 15:13N 35°23' E 139°40'0 0.0
2017-Oct-10 13:55N 35°23' E 139°40'0 0.0
2017-Oct-10 13:25N 35°23' E 139°40'0 0.0
2017-Oct-10 12:49N 35°23' E 139°40'0 0.0
2017-Oct-10 12:19N 35°23' E 139°40'0 0.1
2017-Oct-10 11:56N 35°23' E 139°40'3 6.9
2017-Oct-10 11:27N 35°25' E 139°43'2 5.2
2017-Oct-10 11:00N 35°28' E 139°42'0 0.0
2017-Oct-10 10:30N 35°28' E 139°42'0 0.0
2017-Oct-10 09:59N 35°28' E 139°42'0 0.0
2017-Oct-10 09:20N 35°28' E 139°42'0 0.0
2017-Oct-10 08:38N 35°28' E 139°42'0 0.0
2017-Oct-10 08:26N 35°28' E 139°42'0 0.0
2017-Oct-10 07:56N 35°28' E 139°42'0 0.0
2017-Oct-10 07:26N 35°28' E 139°42'0 0.0
2017-Oct-10 06:59N 35°28' E 139°42'0 0.0
2017-Oct-10 06:29N 35°28' E 139°42'0 0.0
2017-Oct-10 05:59N 35°28' E 139°42'0 0.0
2017-Oct-10 05:29N 35°28' E 139°42'0 0.0
2017-Oct-10 04:56N 35°28' E 139°42'0 0.0
2017-Oct-10 04:29N 35°28' E 139°42'0 0.0
2017-Oct-10 03:59N 35°28' E 139°42'0 0.0
2017-Oct-10 03:29N 35°28' E 139°42'0 0.0
2017-Oct-10 02:56N 35°28' E 139°42'0 0.0
2017-Oct-10 02:29N 35°28' E 139°42'0 0.0
2017-Oct-10 01:56N 35°28' E 139°42'0 0.0
2017-Oct-10 01:29N 35°28' E 139°42'0 0.0
2017-Oct-10 00:59N 35°28' E 139°42'0 0.0
2017-Oct-10 00:29N 35°28' E 139°42'0 0.3
2017-Oct-10 00:00N 35°28' E 139°42'4 8.5
2017-Oct-09 23:30N 35°24' E 139°45'0 0.7
2017-Oct-09 23:00N 35°24' E 139°46'0 0.1
2017-Oct-09 22:31N 35°24' E 139°46'0 0.0
2017-Oct-09 22:00N 35°24' E 139°46'0 0.0
2017-Oct-09 11:17N 35°24' E 139°46'0 0.0
2017-Oct-09 10:05N 35°24' E 139°46'0 0.1
2017-Oct-09 10:00N 35°24' E 139°46'5 8.0
2017-Oct-09 09:25N 35°20' E 139°43'512.6
2017-Oct-09 09:00N 35°16' E 139°46'612.3
2017-Oct-09 08:30N 35°10' E 139°46'612.9
2017-Oct-09 08:00N 35°03' E 139°44'  
Track history (hours):
 
Tides and Currents Weather Stations Pressure Air Temp Water Temp Dewpoint Dewpoint Depression Visibility Wind Speed Wind Dir Waves Ship Positions

Yu_ka

Last reported at 2017-Oct-17 09:31 UTC. Time now 2017-Oct-17 20:26 UTC.
Position N 34°52' E 139°49'.

Length 76 m; draft 3.9 m.

Type: Cargo ship. MMSI: 431402044.

Date/timePositionNaut miles runAvg speedWind from/ knotsBaromVisibWave heightAir tempDewpointWater temp
2017-Oct-17 09:31N 34°52' E 139°49'112.5
2017-Oct-17 09:24N 34°53' E 139°47'614.6
2017-Oct-17 09:00N 34°57' E 139°43'613.0
2017-Oct-17 08:30N 35°04' E 139°44'612.9
2017-Oct-17 08:00N 35°10' E 139°46'612.7
2017-Oct-17 07:30N 35°17' E 139°45'613.0
2017-Oct-17 07:00N 35°22' E 139°42'4 7.8
2017-Oct-17 06:31N 35°26' E 139°41'0 0.2
2017-Oct-17 06:00N 35°26' E 139°41'0 0.0
2017-Oct-17 05:30N 35°26' E 139°41'0 0.0
2017-Oct-17 05:00N 35°26' E 139°41'1 1.8
2017-Oct-17 04:30N 35°27' E 139°42'1 1.7
2017-Oct-17 04:00N 35°27' E 139°43'0 0.0
2017-Oct-17 03:30N 35°27' E 139°43'0 0.0
2017-Oct-17 03:00N 35°27' E 139°43'0 0.1
2017-Oct-17 02:30N 35°27' E 139°43'0 0.0
2017-Oct-17 02:00N 35°27' E 139°43'0 0.1
2017-Oct-17 01:30N 35°27' E 139°43'0 0.1
2017-Oct-17 01:00N 35°27' E 139°43'0 0.0
2017-Oct-17 00:30N 35°27' E 139°43'0 0.0
2017-Oct-17 00:00N 35°27' E 139°43'0 0.0
2017-Oct-16 23:30N 35°27' E 139°43'0 0.0
2017-Oct-16 23:00N 35°27' E 139°43'0 0.0
2017-Oct-16 22:30N 35°27' E 139°43'0 0.0
2017-Oct-16 22:00N 35°27' E 139°43'0 0.0
2017-Oct-16 21:30N 35°27' E 139°43'0 0.0
2017-Oct-16 21:00N 35°27' E 139°43'0 0.0
2017-Oct-16 20:30N 35°27' E 139°43'0 0.0
2017-Oct-16 20:00N 35°27' E 139°43'0 0.0
2017-Oct-16 19:30N 35°27' E 139°43'0 0.0
2017-Oct-16 19:00N 35°27' E 139°43'0 0.0
2017-Oct-16 18:30N 35°27' E 139°43'0 0.0
2017-Oct-16 18:00N 35°27' E 139°43'0 0.0
2017-Oct-16 17:30N 35°27' E 139°43'0 0.0
2017-Oct-16 17:00N 35°27' E 139°43'0 0.0
2017-Oct-16 16:30N 35°27' E 139°43'0 0.0
2017-Oct-16 16:00N 35°27' E 139°43'0 0.0
2017-Oct-16 15:30N 35°27' E 139°43'0 0.0
2017-Oct-16 15:00N 35°27' E 139°43'0 0.0
2017-Oct-16 14:00N 35°27' E 139°43'0 0.0
2017-Oct-16 13:30N 35°27' E 139°43'0 0.0
2017-Oct-16 13:00N 35°27' E 139°43'0 0.1
2017-Oct-16 12:30N 35°27' E 139°43'0 0.0
2017-Oct-16 12:00N 35°27' E 139°43'0 0.0
2017-Oct-16 11:30N 35°27' E 139°43'0 0.0
2017-Oct-16 11:00N 35°27' E 139°43'0 0.0
2017-Oct-16 10:30N 35°27' E 139°43'0 0.0
2017-Oct-16 10:00N 35°27' E 139°43'0 0.0
2017-Oct-16 09:30N 35°27' E 139°43'0 0.0
2017-Oct-16 09:00N 35°27' E 139°43'0 0.2
2017-Oct-16 08:31N 35°27' E 139°43'1 2.5
2017-Oct-16 08:00N 35°28' E 139°42'0 0.0
2017-Oct-16 07:30N 35°28' E 139°42'0 0.0
2017-Oct-16 07:00N 35°28' E 139°42'0 0.0
2017-Oct-16 06:29N 35°28' E 139°42'0 0.0
2017-Oct-16 05:59N 35°28' E 139°42'0 0.0
2017-Oct-16 05:29N 35°28' E 139°42'0 0.0
2017-Oct-16 04:59N 35°28' E 139°42'0 0.0
2017-Oct-16 04:29N 35°28' E 139°42'2 4.8
2017-Oct-16 04:00N 35°26' E 139°44'2 4.5
2017-Oct-16 03:27N 35°24' E 139°45'0 0.0
2017-Oct-16 03:00N 35°24' E 139°45'0 0.0
2017-Oct-16 02:30N 35°24' E 139°45'0 0.0
2017-Oct-16 02:00N 35°24' E 139°45'0 0.0
2017-Oct-16 01:30N 35°24' E 139°45'0 0.0
2017-Oct-16 01:00N 35°24' E 139°45'0 0.0
2017-Oct-16 00:30N 35°24' E 139°45'0 0.0
2017-Oct-16 00:00N 35°24' E 139°45'0 0.1
2017-Oct-15 23:30N 35°24' E 139°45'0 0.1
2017-Oct-15 23:00N 35°24' E 139°45'0 0.0
2017-Oct-15 22:27N 35°24' E 139°45'0 0.0
2017-Oct-15 22:00N 35°24' E 139°45'0 0.0
2017-Oct-15 21:30N 35°24' E 139°45'0 0.0
2017-Oct-15 21:00N 35°24' E 139°45'0 0.1
2017-Oct-15 20:30N 35°24' E 139°45'0 0.1
2017-Oct-15 20:00N 35°24' E 139°45'0 0.1
2017-Oct-15 19:30N 35°24' E 139°45'0 0.1
2017-Oct-15 19:00N 35°24' E 139°45'0 0.0
2017-Oct-15 18:30N 35°24' E 139°45'0 0.0
2017-Oct-15 18:00N 35°24' E 139°45'0 0.1
2017-Oct-15 17:30N 35°24' E 139°45'0 0.0
2017-Oct-15 17:00N 35°24' E 139°45'0 0.0
2017-Oct-15 16:30N 35°24' E 139°45'0 0.1
2017-Oct-15 15:57N 35°24' E 139°45'0 0.0
2017-Oct-15 15:30N 35°24' E 139°45'0 0.0
2017-Oct-15 15:00N 35°24' E 139°45'0 0.0
2017-Oct-15 14:00N 35°24' E 139°45'0 0.0
2017-Oct-15 13:30N 35°24' E 139°45'0 0.0
2017-Oct-15 13:00N 35°24' E 139°45'0 0.0
2017-Oct-15 12:30N 35°24' E 139°45'0 0.0
2017-Oct-15 12:00N 35°24' E 139°45'0 0.1
2017-Oct-15 11:30N 35°24' E 139°45'0 0.0
2017-Oct-15 11:00N 35°24' E 139°45'0 0.0
2017-Oct-15 10:30N 35°24' E 139°45'0 0.0
2017-Oct-15 10:00N 35°24' E 139°45'0 0.0
2017-Oct-15 09:30N 35°24' E 139°45'0 0.0
2017-Oct-15 09:00N 35°24' E 139°45'2 5.1
2017-Oct-15 08:31N 35°22' E 139°43'611.6
2017-Oct-15 08:00N 35°17' E 139°46'611.4
2017-Oct-15 07:30N 35°11' E 139°47'612.4
2017-Oct-15 07:00N 35°05' E 139°45'612.0
2017-Oct-15 06:31N 34°59' E 139°43'  
2017-Oct-10 23:45N 35°24' E 139°41'0 0.0
2017-Oct-10 23:26N 35°24' E 139°41'1 2.7
2017-Oct-10 23:00N 35°23' E 139°40'0 0.1
2017-Oct-10 22:25N 35°23' E 139°40'0 0.0
2017-Oct-10 20:37N 35°23' E 139°40'0 0.2
2017-Oct-10 20:19N 35°23' E 139°40'0 0.0
2017-Oct-10 19:55N 35°23' E 139°40'0 0.0
2017-Oct-10 19:25N 35°23' E 139°40'0 0.0
2017-Oct-10 17:55N 35°23' E 139°40'0 0.1
2017-Oct-10 17:25N 35°23' E 139°40'0 0.0
2017-Oct-10 15:37N 35°23' E 139°40'0 0.0
2017-Oct-10 15:13N 35°23' E 139°40'0 0.0
2017-Oct-10 13:55N 35°23' E 139°40'0 0.0
2017-Oct-10 13:25N 35°23' E 139°40'0 0.0
2017-Oct-10 12:49N 35°23' E 139°40'0 0.0
2017-Oct-10 12:19N 35°23' E 139°40'0 0.1
2017-Oct-10 11:56N 35°23' E 139°40'3 6.9
2017-Oct-10 11:27N 35°25' E 139°43'2 5.2
2017-Oct-10 11:00N 35°28' E 139°42'0 0.0
2017-Oct-10 10:30N 35°28' E 139°42'0 0.0
2017-Oct-10 09:59N 35°28' E 139°42'0 0.0
2017-Oct-10 09:20N 35°28' E 139°42'0 0.0
2017-Oct-10 08:38N 35°28' E 139°42'0 0.0
2017-Oct-10 08:26N 35°28' E 139°42'0 0.0
2017-Oct-10 07:56N 35°28' E 139°42'0 0.0
2017-Oct-10 07:26N 35°28' E 139°42'0 0.0
2017-Oct-10 06:59N 35°28' E 139°42'0 0.0
2017-Oct-10 06:29N 35°28' E 139°42'0 0.0
2017-Oct-10 05:59N 35°28' E 139°42'0 0.0
2017-Oct-10 05:29N 35°28' E 139°42'0 0.0
2017-Oct-10 04:56N 35°28' E 139°42'0 0.0
2017-Oct-10 04:29N 35°28' E 139°42'0 0.0
2017-Oct-10 03:59N 35°28' E 139°42'0 0.0
2017-Oct-10 03:29N 35°28' E 139°42'0 0.0
2017-Oct-10 02:56N 35°28' E 139°42'0 0.0
2017-Oct-10 02:29N 35°28' E 139°42'0 0.0
2017-Oct-10 01:56N 35°28' E 139°42'0 0.0
2017-Oct-10 01:29N 35°28' E 139°42'0 0.0
2017-Oct-10 00:59N 35°28' E 139°42'0 0.0
2017-Oct-10 00:29N 35°28' E 139°42'0 0.3
2017-Oct-10 00:00N 35°28' E 139°42'4 8.5
2017-Oct-09 23:30N 35°24' E 139°45'0 0.7
2017-Oct-09 23:00N 35°24' E 139°46'0 0.1
2017-Oct-09 22:31N 35°24' E 139°46'0 0.0
2017-Oct-09 22:00N 35°24' E 139°46'0 0.0
2017-Oct-09 11:17N 35°24' E 139°46'0 0.0
2017-Oct-09 10:05N 35°24' E 139°46'0 0.1
2017-Oct-09 10:00N 35°24' E 139°46'5 8.0
2017-Oct-09 09:25N 35°20' E 139°43'512.6
2017-Oct-09 09:00N 35°16' E 139°46'612.3
2017-Oct-09 08:30N 35°10' E 139°46'612.9
2017-Oct-09 08:00N 35°03' E 139°44'  

Dump ship's entire track history